Time;durP1;ratioP1;P1;durP2;ratioP2;P2;SDS_P1;SDS_P2;PMS_P1;PMS_P2;Temp;Humidity;BMP_temperature;BMP_pressure;BME280_temperature;BME280_humidity;BME280_pressure;Samples;Min_cycle;Max_cycle;Signal;HPM_P1;HPM_P2
2022/11/10 00:00:35;;;;;;;50.22;27.90;;;;;;;6.97;100.00;97716.78;5025272;28;20096;-59
2022/11/10 00:03:04;;;;;;;55.42;29.17;;;;;;;6.96;100.00;97706.91;5025693;28;20111;-61
2022/11/10 00:05:31;;;;;;;59.20;30.50;;;;;;;6.88;100.00;97702.25;5025496;28;20114;-61
2022/11/10 00:08:04;;;;;;;60.28;31.17;;;;;;;6.92;100.00;97714.22;5025472;28;20157;-58
2022/11/10 00:10:31;;;;;;;54.17;29.45;;;;;;;6.97;100.00;97711.25;5025463;28;20574;-60
2022/11/10 00:13:00;;;;;;;55.67;31.08;;;;;;;6.83;100.00;97707.13;5023950;28;20588;-57
2022/11/10 00:18:11;;;;;;;57.05;29.67;;;;;;;6.30;100.00;97655.31;5025438;28;20111;-60
2022/11/10 00:20:38;;;;;;;55.97;30.58;;;;;;;6.75;100.00;97692.25;5025273;28;20581;-60
2022/11/10 00:23:04;;;;;;;53.13;28.45;;;;;;;6.88;100.00;97705.00;5025249;28;20132;-57
2022/11/10 00:25:31;;;;;;;50.83;29.42;;;;;;;6.94;100.00;97711.94;5023677;28;20053;-61
2022/11/10 00:27:58;;;;;;;54.35;28.30;;;;;;;6.95;100.00;97708.06;5025265;28;20446;-61
2022/11/10 00:30:25;;;;;;;55.53;27.58;;;;;;;6.80;100.00;97694.00;5023661;28;20107;-60
2022/11/10 00:32:52;;;;;;;47.50;27.67;;;;;;;6.73;100.00;97689.03;5025100;28;20622;-61
2022/11/10 00:35:19;;;;;;;47.50;27.05;;;;;;;6.18;100.00;97588.38;5023859;28;20493;-60
2022/11/10 00:37:48;;;;;;;52.05;27.55;;;;;;;6.40;100.00;97630.22;5016557;28;20614;-57
2022/11/10 00:40:15;;;;;;;52.55;29.15;;;;;;;6.87;100.00;97722.66;5023477;28;20085;-61
2022/11/10 00:42:41;;;;;;;56.22;27.52;;;;;;;6.88;100.00;97695.91;5023783;28;20534;-60
2022/11/10 00:45:08;;;;;;;53.15;29.52;;;;;;;6.76;100.00;97693.88;5024509;28;20136;-57
2022/11/10 00:47:35;;;;;;;53.92;29.20;;;;;;;6.83;100.00;97694.16;5025352;28;20085;-60
2022/11/10 00:50:02;;;;;;;56.03;29.75;;;;;;;6.76;98.93;97688.38;5024851;28;20168;-58
2022/11/10 00:52:28;;;;;;;54.10;28.52;;;;;;;6.64;99.06;97695.69;5023422;28;20061;-59
2022/11/10 00:54:55;;;;;;;55.83;30.35;;;;;;;6.13;99.67;97658.13;5024623;28;20140;-61
2022/11/10 00:57:21;;;;;;;59.45;29.33;;;;;;;6.59;99.19;97715.94;5024883;28;20085;-62
2022/11/10 00:59:48;;;;;;;50.58;28.20;;;;;;;6.22;98.58;97649.84;5024851;28;20145;-58
2022/11/10 01:02:14;;;;;;;53.70;28.02;;;;;;;6.49;99.87;97694.28;5024797;28;20144;-58
2022/11/10 01:04:41;;;;;;;53.65;29.15;;;;;;;6.61;98.75;97686.13;5023564;28;20049;-60
2022/11/10 01:07:07;;;;;;;53.47;29.40;;;;;;;6.58;99.30;97689.56;5024652;28;20136;-58
2022/11/10 01:09:34;;;;;;;52.00;28.00;;;;;;;6.60;98.71;97690.03;5025223;28;20057;-58
2022/11/10 01:12:01;;;;;;;50.17;27.45;;;;;;;6.55;98.58;97692.16;5024300;28;20099;-60
2022/11/10 01:14:27;;;;;;;57.28;27.92;;;;;;;6.43;98.80;97672.78;5027161;28;20495;-60
2022/11/10 01:16:54;;;;;;;52.90;27.70;;;;;;;6.45;98.70;97681.50;5028952;28;20092;-59
2022/11/10 01:19:20;;;;;;;51.47;26.60;;;;;;;6.37;100.00;97674.88;5028806;28;20163;-57
2022/11/10 01:21:50;;;;;;;50.78;27.67;;;;;;;6.30;100.00;97685.59;5027492;28;20077;-58
2022/11/10 01:24:20;;;;;;;49.80;26.58;;;;;;;6.26;100.00;97683.81;5027495;28;20167;-61
2022/11/10 01:26:47;;;;;;;55.92;28.77;;;;;;;6.26;100.00;97679.09;5028386;28;20084;-60
2022/11/10 01:29:14;;;;;;;55.63;28.73;;;;;;;5.87;100.00;97633.41;5028526;28;20053;-58
2022/11/10 01:31:41;;;;;;;51.67;27.88;;;;;;;6.18;100.00;97677.19;5028562;28;20082;-61
2022/11/10 01:34:07;;;;;;;54.72;28.27;;;;;;;6.13;100.00;97682.88;5028389;28;20053;-59
2022/11/10 01:36:34;;;;;;;50.13;27.67;;;;;;;6.05;99.94;97656.19;5028466;28;20140;-58
2022/11/10 01:39:01;;;;;;;55.40;28.50;;;;;;;6.09;100.00;97679.16;5027299;28;20127;-59
2022/11/10 01:41:28;;;;;;;53.00;28.23;;;;;;;6.14;99.23;97687.22;5028746;28;20136;-61
2022/11/10 01:44:11;;;;;;;54.72;27.63;;;;;;;5.78;99.31;97631.78;5028602;28;20084;-58
2022/11/10 01:46:38;;;;;;;50.15;26.33;;;;;;;6.18;98.17;97683.50;5028507;28;20065;-58
2022/11/10 01:49:05;;;;;;;50.00;25.63;;;;;;;6.11;95.24;97687.88;5028104;28;20150;-58
2022/11/10 01:51:44;;;;;;;44.25;25.00;;;;;;;5.94;97.09;97685.16;5027945;28;20515;-58
2022/11/10 01:54:14;;;;;;;52.72;26.30;;;;;;;5.90;99.43;97676.75;5027980;28;20144;-61
2022/11/10 01:56:46;;;;;;;50.30;27.27;;;;;;;5.50;100.00;97622.25;5028165;28;20131;-58
2022/11/10 01:59:21;;;;;;;49.30;27.20;;;;;;;5.97;100.00;97668.00;5027948;28;20592;-59
2022/11/10 02:01:50;;;;;;;48.65;28.38;;;;;;;5.54;100.00;97606.72;5027770;28;20046;-61
2022/11/10 02:04:18;;;;;;;57.22;28.23;;;;;;;5.79;100.00;97647.94;5027637;28;20136;-61
2022/11/10 02:06:47;;;;;;;52.35;28.10;;;;;;;4.81;100.00;97484.13;5027433;28;20111;-61
2022/11/10 02:09:15;;;;;;;48.10;26.63;;;;;;;5.19;100.00;97572.16;5028018;28;20303;-57
2022/11/10 02:11:43;;;;;;;51.15;27.98;;;;;;;5.88;100.00;97667.22;5027655;28;20073;-61
2022/11/10 02:14:10;;;;;;;52.97;29.33;;;;;;;5.89;100.00;97663.34;5027797;28;20050;-61
2022/11/10 02:16:38;;;;;;;51.00;27.92;;;;;;;5.90;100.00;97670.44;5027886;28;20089;-61
2022/11/10 02:19:18;;;;;;;52.45;25.80;;;;;;;5.87;100.00;97666.41;5027591;28;20135;-61
2022/11/10 02:21:44;;;;;;;57.17;29.52;;;;;;;5.79;100.00;97669.94;5027510;28;20099;-61
2022/11/10 02:24:11;;;;;;;50.55;27.50;;;;;;;4.98;100.00;97538.25;5024478;28;20077;-59
2022/11/10 02:26:52;;;;;;;59.90;28.23;;;;;;;5.76;100.00;97670.59;5026049;28;20057;-60
2022/11/10 02:29:19;;;;;;;48.50;28.77;;;;;;;5.23;100.00;97592.38;5027599;28;20144;-60
2022/11/10 02:31:46;;;;;;;56.38;29.33;;;;;;;5.69;100.00;97674.97;5027086;28;20137;-59
2022/11/10 02:34:12;;;;;;;53.85;28.40;;;;;;;5.41;99.39;97643.41;5027477;28;20500;-60
2022/11/10 02:36:39;;;;;;;48.63;28.17;;;;;;;5.71;98.74;97681.75;5027068;28;20049;-57
2022/11/10 02:39:06;;;;;;;53.30;27.10;;;;;;;5.61;95.05;97684.78;5027607;28;20084;-57
2022/11/10 02:41:32;;;;;;;48.70;27.10;;;;;;;5.49;93.23;97686.56;5026124;28;20144;-61
2022/11/10 02:43:59;;;;;;;57.15;28.98;;;;;;;5.39;95.13;97686.91;5025898;28;20144;-58
2022/11/10 02:46:26;;;;;;;65.88;30.95;;;;;;;5.53;95.83;97677.34;5026879;28;20049;-57
2022/11/10 02:48:53;;;;;;;56.03;29.23;;;;;;;5.28;96.23;97647.13;5026810;28;20154;-61
2022/11/10 02:51:19;;;;;;;57.10;28.77;;;;;;;5.43;97.44;97687.84;5026833;28;20095;-60
2022/11/10 02:53:46;;;;;;;54.08;29.02;;;;;;;5.44;98.39;97689.47;5027081;28;20077;-62
2022/11/10 02:56:12;;;;;;;53.97;28.65;;;;;;;5.52;99.30;97697.72;5026820;28;20049;-60
2022/11/10 02:58:39;;;;;;;59.22;28.35;;;;;;;5.54;99.80;97684.47;5025643;28;20060;-59
2022/11/10 03:01:06;;;;;;;56.72;29.10;;;;;;;5.49;100.00;97692.06;5026503;28;20139;-59
2022/11/10 03:03:33;;;;;;;52.88;27.00;;;;;;;5.53;99.81;97690.31;5026497;28;20444;-59
2022/11/10 03:06:00;;;;;;;58.63;27.88;;;;;;;4.87;100.00;97602.81;5024998;28;20156;-59
2022/11/10 03:08:26;;;;;;;55.70;28.30;;;;;;;5.45;99.30;97696.59;5026566;28;20088;-59
2022/11/10 03:10:55;;;;;;;51.55;28.45;;;;;;;5.33;98.63;97693.66;5026348;28;20202;-62
2022/11/10 03:13:23;;;;;;;53.50;27.85;;;;;;;5.35;96.11;97691.41;5026257;28;20050;-63
2022/11/10 03:15:50;;;;;;;51.10;27.95;;;;;;;5.23;97.97;97693.97;5025257;28;20463;-62
2022/11/10 03:18:17;;;;;;;55.30;29.30;;;;;;;4.57;97.48;97604.50;5026298;28;20079;-59
2022/11/10 03:20:47;;;;;;;51.80;28.52;;;;;;;4.65;96.12;97662.16;5026187;28;20100;-60
2022/11/10 03:23:14;;;;;;;54.00;26.73;;;;;;;4.68;93.39;97703.81;5026067;28;20089;-58
2022/11/10 03:25:40;;;;;;;50.42;25.48;;;;;;;4.71;94.57;97703.16;5026311;28;20135;-64
2022/11/10 03:28:07;;;;;;;106.03;38.67;;;;;;;4.79;93.59;97699.66;5025811;28;20057;-60
2022/11/10 03:30:34;;;;;;;66.63;30.50;;;;;;;4.65;93.37;97672.31;5024918;28;20085;-58
2022/11/10 03:33:00;;;;;;;63.28;29.77;;;;;;;4.73;94.78;97698.19;5024548;28;20530;-57
2022/11/10 03:35:27;;;;;;;55.00;28.13;;;;;;;4.77;95.80;97701.91;5025659;28;20166;-61
2022/11/10 03:37:54;;;;;;;52.00;27.55;;;;;;;4.82;100.00;97704.50;5025890;28;20107;-61
2022/11/10 03:40:21;;;;;;;51.97;26.98;;;;;;;4.77;95.70;97701.91;5025563;28;20103;-60
2022/11/10 03:42:47;;;;;;;53.58;27.80;;;;;;;4.71;94.84;97703.16;5025951;28;20172;-60
2022/11/10 03:45:14;;;;;;;52.72;28.40;;;;;;;4.65;94.07;97697.00;5024354;28;20076;-60
2022/11/10 03:47:46;;;;;;;55.50;28.02;;;;;;;4.47;94.59;97698.06;5026388;28;20062;-58
2022/11/10 03:50:14;;;;;;;54.30;28.65;;;;;;;4.61;94.47;97710.56;5023917;28;20081;-57
2022/11/10 03:52:43;;;;;;;57.83;28.73;;;;;;;4.71;95.18;97708.66;5026029;28;20053;-60
2022/11/10 03:55:16;;;;;;;85.75;30.30;;;;;;;4.78;98.09;97676.06;5025830;28;20128;-59
2022/11/10 03:57:43;;;;;;;121.43;32.50;;;;;;;4.99;100.00;97699.06;5025574;28;20050;-58
2022/11/10 04:00:12;;;;;;;92.95;33.15;;;;;;;4.98;100.00;97708.44;5025450;28;20140;-60
2022/11/10 04:02:38;;;;;;;64.22;30.83;;;;;;;5.00;100.00;97696.00;5025853;28;20503;-61
2022/11/10 04:10:44;;;;;;;69.00;32.65;;;;;;;4.29;97.26;97719.09;5025551;28;20136;-57
2022/11/10 04:15:56;;;;;;;69.97;30.63;;;;;;;3.73;100.00;97699.66;5025450;28;20073;-59
2022/11/10 04:18:23;;;;;;;81.00;34.30;;;;;;;3.86;100.00;97703.44;5025155;28;20416;-57
2022/11/10 04:21:03;;;;;;;71.82;33.83;;;;;;;4.02;100.00;97713.75;5025435;28;20088;-62
2022/11/10 04:23:34;;;;;;;80.22;35.00;;;;;;;3.60;99.38;97623.03;5025602;28;20143;-60
2022/11/10 04:28:56;;;;;;;75.90;32.72;;;;;;;4.32;97.31;97704.75;5025020;28;20092;-61
2022/11/10 04:31:25;;;;;;;57.80;30.05;;;;;;;4.13;97.18;97708.81;5025046;28;20107;-57
2022/11/10 04:33:53;;;;;;;57.80;27.90;;;;;;;4.14;97.81;97710.44;5024984;28;20149;-58
2022/11/10 04:36:24;;;;;;;63.67;29.52;;;;;;;4.06;97.11;97714.72;5024847;28;20089;-57
2022/11/10 04:38:51;;;;;;;59.45;29.52;;;;;;;4.03;95.76;97715.34;5025140;28;20128;-60
2022/11/10 04:41:18;;;;;;;80.10;33.63;;;;;;;3.94;95.54;97713.66;5023615;28;20139;-60
2022/11/10 04:43:44;;;;;;;76.97;32.50;;;;;;;3.61;96.38;97685.72;5024772;28;20093;-62
2022/11/10 04:46:33;;;;;;;81.28;34.60;;;;;;;3.65;97.67;97714.06;5024259;28;20076;-57
2022/11/10 04:49:00;;;;;;;93.43;32.90;;;;;;;2.84;98.24;97591.97;5025093;28;20445;-61
2022/11/10 04:51:30;;;;;;;80.65;30.50;;;;;;;3.64;96.66;97701.50;5024709;28;20089;-61
2022/11/10 04:53:57;;;;;;;72.25;31.05;;;;;;;3.86;95.33;97715.22;5024631;28;20046;-58
2022/11/10 04:56:24;;;;;;;93.93;33.85;;;;;;;3.64;95.93;97698.78;5024816;28;20077;-61
2022/11/10 04:58:52;;;;;;;81.50;32.80;;;;;;;3.78;96.60;97737.88;5023625;28;20046;-60
2022/11/10 05:01:22;;;;;;;84.60;34.65;;;;;;;3.76;96.34;97704.50;5023280;28;20148;-59
2022/11/10 05:03:50;;;;;;;90.28;37.70;;;;;;;3.86;97.30;97723.44;5023497;28;20069;-59
2022/11/10 05:06:17;;;;;;;88.78;35.80;;;;;;;3.84;98.38;97722.94;5024883;28;20145;-61
2022/11/10 05:08:45;;;;;;;90.63;37.17;;;;;;;2.99;99.15;97608.03;5024580;28;20051;-61
2022/11/10 05:11:12;;;;;;;102.13;36.85;;;;;;;3.77;100.00;97736.28;5023176;28;20111;-60
2022/11/10 05:13:39;;;;;;;120.40;36.53;;;;;;;3.86;100.00;97726.19;5022584;28;20132;-61
2022/11/10 05:16:06;;;;;;;92.80;35.35;;;;;;;3.89;100.00;97728.31;5023033;28;20141;-60
2022/11/10 05:18:33;;;;;;;91.38;34.63;;;;;;;4.00;100.00;97731.63;5024579;28;20117;-57
2022/11/10 05:20:59;;;;;;;101.18;36.58;;;;;;;4.02;100.00;97735.66;5024810;28;20538;-60
2022/11/10 05:23:38;;;;;;;96.40;34.75;;;;;;;3.99;100.00;97741.78;5023305;28;20085;-61
2022/11/10 05:26:07;;;;;;;81.35;33.67;;;;;;;4.09;100.00;97730.56;5024488;28;20479;-60
2022/11/10 05:28:35;;;;;;;78.35;34.13;;;;;;;4.20;100.00;97742.91;5024819;28;20081;-58
2022/11/10 05:31:01;;;;;;;78.68;33.65;;;;;;;3.38;100.00;97643.00;5024595;28;20061;-58
2022/11/10 05:33:28;;;;;;;79.95;34.95;;;;;;;3.56;100.00;97661.16;5024422;28;20103;-61
2022/11/10 05:35:55;;;;;;;89.00;38.15;;;;;;;4.15;100.00;97762.22;5024453;28;20123;-58
2022/11/10 05:38:22;;;;;;;93.95;40.40;;;;;;;3.43;100.00;97655.75;5024468;28;20045;-58
2022/11/10 05:40:48;;;;;;;81.18;36.03;;;;;;;4.40;100.00;97742.38;5024383;28;20076;-60
2022/11/10 05:43:15;;;;;;;72.32;35.42;;;;;;;4.43;99.16;97725.31;5024488;28;20140;-68
2022/11/10 05:45:42;;;;;;;79.00;37.38;;;;;;;4.21;98.53;97654.03;5023320;28;20054;-59
2022/11/10 05:48:09;;;;;;;90.28;41.63;;;;;;;4.94;99.10;97751.38;5024381;28;20045;-58
2022/11/10 05:50:36;;;;;;;69.50;37.00;;;;;;;4.48;98.01;97673.06;5024037;28;20061;-59
2022/11/10 05:53:02;;;;;;;67.55;34.83;;;;;;;4.68;97.52;97703.81;5023923;28;20492;-58
2022/11/10 05:55:30;;;;;;;56.90;29.70;;;;;;;4.71;96.03;97769.03;5024187;28;20058;-59
2022/11/10 05:57:57;;;;;;;62.53;29.88;;;;;;;4.29;99.31;97762.97;5023915;28;20132;-62
2022/11/10 06:00:27;;;;;;;60.58;28.90;;;;;;;4.06;100.00;97774.25;5042641;28;20131;-57
2022/11/10 06:03:04;;;;;;;67.88;30.05;;;;;;;4.03;100.00;97770.16;5026500;28;20194;-61
2022/11/10 06:05:33;;;;;;;72.15;32.05;;;;;;;3.83;100.00;97773.41;5027784;28;20091;-61
2022/11/10 06:08:02;;;;;;;74.88;30.90;;;;;;;3.14;100.00;97680.75;5027555;28;20080;-61
2022/11/10 06:10:30;;;;;;;72.60;36.33;;;;;;;4.12;100.00;97782.03;5027733;28;20064;-61
2022/11/10 06:12:57;;;;;;;82.53;35.95;;;;;;;3.99;100.00;97725.34;5027337;28;20131;-60
2022/11/10 06:15:24;;;;;;;81.20;34.45;;;;;;;4.65;100.00;97782.88;5027386;28;20137;-62
2022/11/10 06:17:52;;;;;;;79.63;35.17;;;;;;;4.94;100.00;97795.28;5027806;28;20152;-58
2022/11/10 06:20:19;;;;;;;74.25;32.65;;;;;;;5.00;100.00;97750.09;5042348;28;20685;-61
2022/11/10 06:22:58;;;;;;;101.50;40.55;;;;;;;5.38;98.12;97778.66;5027241;28;20076;-61
2022/11/10 06:25:25;;;;;;;95.00;38.30;;;;;;;5.47;97.58;97755.56;5025981;28;20100;-60
2022/11/10 06:27:52;;;;;;;97.82;38.60;;;;;;;5.67;97.65;97776.97;5027582;28;20107;-58
2022/11/10 06:30:19;;;;;;;97.32;37.65;;;;;;;5.68;97.43;97781.31;5026953;28;20145;-58
2022/11/10 06:32:46;;;;;;;104.53;41.88;;;;;;;5.74;98.54;97776.47;5027960;28;20107;-60
2022/11/10 06:35:12;;;;;;;103.10;40.33;;;;;;;5.84;98.11;97776.19;5027001;28;20049;-61
2022/11/10 06:37:39;;;;;;;89.90;39.78;;;;;;;5.97;97.13;97778.00;5027446;28;20081;-61
2022/11/10 06:40:07;;;;;;;97.40;40.58;;;;;;;5.60;96.92;97727.16;5027081;28;20118;-59
2022/11/10 06:42:34;;;;;;;104.63;43.50;;;;;;;6.19;96.15;97783.34;5027392;28;20524;-62
2022/11/10 06:45:01;;;;;;;101.22;40.92;;;;;;;5.94;95.04;97721.69;5026677;28;20125;-61
2022/11/10 06:47:28;;;;;;;124.60;48.05;;;;;;;6.58;94.67;97772.13;5025713;28;20132;-61
2022/11/10 06:49:55;;;;;;;119.13;45.53;;;;;;;6.75;92.52;97785.84;5026943;28;20140;-61
2022/11/10 06:52:22;;;;;;;99.45;42.88;;;;;;;6.55;93.55;97752.69;5026200;28;20053;-60
2022/11/10 06:54:48;;;;;;;93.63;39.45;;;;;;;6.97;93.00;97782.88;5035451;28;20064;-58
2022/11/10 06:57:15;;;;;;;91.88;39.78;;;;;;;6.21;92.12;97649.06;5026296;28;20080;-61
2022/11/10 06:59:42;;;;;;;88.25;39.75;;;;;;;7.32;91.37;97778.84;5025056;28;20084;-58
2022/11/10 07:02:15;;;;;;;83.60;37.08;;;;;;;6.85;91.33;97708.41;5026129;28;20550;-60
2022/11/10 07:04:42;;;;;;;72.65;36.70;;;;;;;7.38;89.84;97749.97;5024950;28;20101;-58
2022/11/10 07:07:09;;;;;;;72.95;35.10;;;;;;;7.72;90.03;97780.09;5025474;28;20433;-60
2022/11/10 07:09:36;;;;;;;70.35;35.08;;;;;;;7.24;89.29;97663.97;5024110;28;20057;-60
2022/11/10 07:12:04;;;;;;;68.57;34.15;;;;;;;8.22;87.36;97784.78;5026379;28;20077;-59
2022/11/10 07:14:30;;;;;;;73.93;34.13;;;;;;;8.36;86.60;97779.81;5026238;28;20089;-62
2022/11/10 07:16:57;;;;;;;61.65;31.30;;;;;;;7.93;87.84;97782.88;5025120;28;20504;-61
2022/11/10 07:19:24;;;;;;;68.60;33.35;;;;;;;7.64;91.34;97791.97;5026197;28;20053;-62
2022/11/10 07:21:50;;;;;;;68.85;33.85;;;;;;;8.08;90.36;97784.25;5024816;28;20501;-59
2022/11/10 07:24:17;;;;;;;64.50;33.97;;;;;;;8.14;90.79;97793.94;5026525;28;20507;-59
2022/11/10 07:26:44;;;;;;;68.03;35.55;;;;;;;8.40;88.76;97786.28;5026207;28;20150;-59
2022/11/10 07:29:10;;;;;;;59.75;30.70;;;;;;;8.41;90.04;97769.38;5025714;28;20069;-61
2022/11/10 07:31:37;;;;;;;61.70;33.92;;;;;;;7.99;87.86;97715.31;5023984;28;20060;-61
2022/11/10 07:34:04;;;;;;;63.55;30.67;;;;;;;6.63;88.33;97425.16;5025397;28;20575;-60
2022/11/10 07:36:30;;;;;;;54.10;29.33;;;;;;;9.21;86.90;97790.00;5024936;28;20137;-58
2022/11/10 07:38:57;;;;;;;49.83;29.67;;;;;;;9.34;85.69;97810.97;5023203;28;20053;-59
2022/11/10 07:41:23;;;;;;;53.28;28.65;;;;;;;9.35;84.38;97710.28;5024244;28;20532;-60
2022/11/10 07:43:50;;;;;;;47.42;28.27;;;;;;;10.20;84.13;97772.69;5023769;28;20049;-58
2022/11/10 07:46:17;;;;;;;46.78;28.77;;;;;;;10.48;82.55;97772.69;5023935;28;20132;-59
2022/11/10 07:48:43;;;;;;;52.70;28.23;;;;;;;10.81;81.87;97764.94;5024843;28;20104;-59
2022/11/10 07:51:10;;;;;;;53.13;29.95;;;;;;;10.56;79.94;97725.47;5023705;28;20053;-59
2022/11/10 07:53:37;;;;;;;45.40;27.85;;;;;;;10.62;80.28;97735.13;5024770;28;20084;-61
2022/11/10 07:56:05;;;;;;;47.42;27.67;;;;;;;11.28;79.68;97767.78;5024558;28;20084;-60
2022/11/10 07:58:32;;;;;;;45.67;28.30;;;;;;;11.45;79.28;97784.06;5040058;28;20076;-60
2022/11/10 08:00:59;;;;;;;48.28;28.02;;;;;;;11.59;79.60;97767.75;5024391;28;20511;-61
2022/11/10 08:03:26;;;;;;;51.03;30.60;;;;;;;11.53;78.54;97724.81;5025152;28;20088;-61
2022/11/10 08:05:52;;;;;;;45.60;27.77;;;;;;;11.83;77.96;97753.72;5024115;28;20119;-62
2022/11/10 08:08:19;;;;;;;49.72;27.48;;;;;;;11.66;78.21;97706.94;5024029;28;20303;-62
2022/11/10 08:10:46;;;;;;;45.22;27.23;;;;;;;10.12;80.50;97566.00;5023340;28;20492;-61
2022/11/10 08:13:13;;;;;;;49.15;27.55;;;;;;;11.46;81.08;97760.72;5024510;28;20045;-60
2022/11/10 08:15:40;;;;;;;54.97;30.10;;;;;;;11.43;82.22;97747.56;5024366;28;20081;-61
2022/11/10 08:18:14;;;;;;;46.63;28.45;;;;;;;11.52;80.42;97689.91;5024254;28;20057;-66
2022/11/10 08:20:41;;;;;;;43.40;27.60;;;;;;;12.20;79.43;97755.75;5024659;28;20087;-66
2022/11/10 08:23:07;;;;;;;46.67;26.45;;;;;;;12.19;78.40;97698.59;5023771;28;20053;-61
2022/11/10 08:25:37;;;;;;;50.53;27.42;;;;;;;11.82;77.10;97610.56;5023971;28;20140;-60
2022/11/10 08:28:09;;;;;;;45.83;27.83;;;;;;;12.86;75.50;97738.88;5024400;28;20140;-60
2022/11/10 08:30:38;;;;;;;47.30;27.17;;;;;;;12.70;75.28;97679.78;5023438;28;20049;-60
2022/11/10 08:33:07;;;;;;;44.28;25.65;;;;;;;13.04;75.76;97756.72;5023224;28;20077;-62
2022/11/10 08:35:37;;;;;;;41.33;25.88;;;;;;;12.66;76.10;97739.28;5022917;28;20095;-60
2022/11/10 08:38:06;;;;;;;42.38;25.17;;;;;;;12.66;78.02;97758.72;5023071;28;20104;-62
2022/11/10 08:40:36;;;;;;;43.05;27.92;;;;;;;12.50;80.14;97763.53;5023065;28;20136;-60
2022/11/10 08:43:06;;;;;;;39.63;25.90;;;;;;;12.37;81.16;97759.28;5023248;28;20073;-60
2022/11/10 08:45:34;;;;;;;44.22;26.65;;;;;;;11.93;81.74;97694.88;5024491;28;20049;-66
2022/11/10 08:48:06;;;;;;;49.40;28.30;;;;;;;11.71;82.42;97676.13;5021726;28;20073;-66
2022/11/10 08:50:33;;;;;;;40.72;25.67;;;;;;;12.31;82.13;97761.56;5023284;28;20096;-61
2022/11/10 08:53:02;;;;;;;45.05;27.63;;;;;;;12.82;81.01;97760.22;5022444;28;20099;-60
2022/11/10 08:55:29;;;;;;;50.67;29.70;;;;;;;13.23;79.06;97753.91;5023688;28;20049;-56
2022/11/10 08:58:00;;;;;;;42.40;26.77;;;;;;;13.54;78.24;97750.88;5023228;28;20049;-65
2022/11/10 09:00:28;;;;;;;45.05;27.02;;;;;;;13.17;75.91;97669.13;5023993;28;20432;-63
2022/11/10 09:02:56;;;;;;;44.78;28.40;;;;;;;13.98;75.23;97719.72;5024428;28;20111;-59
2022/11/10 09:05:23;;;;;;;46.55;27.58;;;;;;;14.24;74.06;97725.28;5024113;28;20053;-63
2022/11/10 09:07:50;;;;;;;38.33;24.70;;;;;;;14.44;72.09;97699.69;5022689;28;20045;-61
2022/11/10 09:10:16;;;;;;;44.15;27.33;;;;;;;15.02;71.63;97739.81;5023350;28;20481;-61
2022/11/10 09:12:43;;;;;;;44.63;27.42;;;;;;;14.48;70.75;97635.63;5023656;28;20160;-64
2022/11/10 09:15:11;;;;;;;45.25;26.30;;;;;;;15.51;69.38;97745.09;5023792;28;20057;-62
2022/11/10 09:17:39;;;;;;;40.72;27.20;;;;;;;15.66;67.44;97738.47;5023913;28;20119;-61
2022/11/10 09:20:07;;;;;;;37.40;25.40;;;;;;;15.79;66.84;97723.00;5023293;28;20132;-61
2022/11/10 09:22:35;;;;;;;46.33;26.63;;;;;;;15.96;66.53;97730.72;5023842;28;20505;-60
2022/11/10 09:25:02;;;;;;;42.10;27.33;;;;;;;13.94;65.94;97367.94;5022706;28;20066;-62
2022/11/10 09:27:29;;;;;;;38.90;24.65;;;;;;;15.82;65.08;97660.75;5024351;28;20049;-65
2022/11/10 09:29:56;;;;;;;38.60;25.00;;;;;;;16.22;65.59;97730.47;5023981;28;20486;-63
2022/11/10 09:32:22;;;;;;;36.58;25.08;;;;;;;16.29;64.95;97722.16;5027518;28;20045;-60
2022/11/10 09:34:49;;;;;;;47.42;27.67;;;;;;;16.21;65.06;97720.50;5029901;28;20045;-62
2022/11/10 09:37:18;;;;;;;45.75;27.27;;;;;;;16.24;64.83;97716.91;5027313;28;20061;-59
2022/11/10 09:39:45;;;;;;;52.58;27.92;;;;;;;16.60;63.91;97718.72;5027640;28;20131;-67
2022/11/10 09:42:33;;;;;;;54.55;26.42;;;;;;;16.64;64.12;97725.13;5026354;28;20128;-66
2022/11/10 09:45:19;;;;;;;42.63;26.77;;;;;;;15.98;63.52;97580.22;5026772;28;20199;-61
2022/11/10 09:48:06;;;;;;;36.67;24.63;;;;;;;17.11;62.83;97715.69;5026539;28;20471;-61
2022/11/10 09:50:45;;;;;;;38.00;26.02;;;;;;;16.68;62.34;97606.84;5026925;28;20079;-63
2022/11/10 09:53:20;;;;;;;38.78;25.05;;;;;;;16.51;60.52;97550.47;5027827;28;20577;-62
2022/11/10 09:55:55;;;;;;;37.25;23.80;;;;;;;17.67;59.93;97717.78;5027424;28;20049;-62
2022/11/10 09:58:28;;;;;;;44.63;25.02;;;;;;;17.37;60.50;97712.50;5027726;28;20496;-62
2022/11/10 10:01:24;;;;;;;37.40;25.85;;;;;;;17.15;61.34;97713.69;5027294;28;20053;-62
2022/11/10 10:04:26;;;;;;;40.85;24.65;;;;;;;17.13;60.94;97674.09;5026325;28;20088;-62
2022/11/10 10:07:29;;;;;;;36.15;25.58;;;;;;;17.43;61.05;97710.13;5022531;28;20532;-65
2022/11/10 10:10:20;;;;;;;46.15;27.40;;;;;;;17.23;60.89;97703.31;5021430;28;20097;-64
2022/11/10 10:12:56;;;;;;;40.25;24.90;;;;;;;17.37;61.00;97700.53;5025361;28;20111;-60
2022/11/10 10:15:41;;;;;;;45.78;26.80;;;;;;;17.45;60.45;97676.97;5032385;28;20076;-67
2022/11/10 10:18:34;;;;;;;36.90;25.27;;;;;;;17.52;59.19;97640.53;5030448;28;20107;-63
2022/11/10 10:21:04;;;;;;;33.78;23.67;;;;;;;17.42;60.01;97697.34;5032010;28;20490;-62
2022/11/10 10:23:45;;;;;;;35.05;22.77;;;;;;;17.35;59.13;97681.31;5028483;28;20065;-62
2022/11/10 10:26:36;;;;;;;34.78;23.92;;;;;;;17.79;59.11;97700.56;5025473;28;20057;-63
2022/11/10 10:29:19;;;;;;;36.25;23.85;;;;;;;17.18;58.83;97558.13;5027109;28;20053;-61
2022/11/10 10:31:49;;;;;;;34.08;23.60;;;;;;;16.75;57.55;97461.38;5026262;28;20053;-60
2022/11/10 10:34:36;;;;;;;41.88;26.38;;;;;;;18.21;57.64;97678.03;5026026;28;20420;-62
2022/11/10 10:37:03;;;;;;;33.17;21.63;;;;;;;18.02;57.08;97642.03;5026888;28;20084;-62
2022/11/10 10:39:45;;;;;;;35.88;22.50;;;;;;;17.95;56.84;97594.41;5026689;28;20053;-58
2022/11/10 10:42:26;;;;;;;31.05;22.10;;;;;;;18.52;56.02;97665.97;5026581;28;20042;-63
2022/11/10 10:45:14;;;;;;;31.55;21.52;;;;;;;18.10;54.97;97590.34;5025224;28;20535;-64
2022/11/10 10:47:41;;;;;;;29.50;20.58;;;;;;;18.52;54.98;97637.91;5027404;28;20057;-61
2022/11/10 10:50:24;;;;;;;29.55;21.83;;;;;;;18.34;54.99;97603.47;5024253;28;20041;-60
2022/11/10 10:53:20;;;;;;;32.33;22.25;;;;;;;18.78;55.13;97662.63;5025230;28;20077;-65
2022/11/10 10:56:00;;;;;;;33.85;21.20;;;;;;;18.74;55.23;97656.25;5026462;28;20060;-63
2022/11/10 10:58:30;;;;;;;33.83;22.58;;;;;;;18.56;55.13;97621.06;5026280;28;20053;-62
2022/11/10 11:01:04;;;;;;;30.30;20.77;;;;;;;18.61;54.31;97596.16;5026058;28;20053;-60
2022/11/10 11:03:47;;;;;;;33.42;21.10;;;;;;;19.13;54.12;97662.41;5025243;28;20045;-62
2022/11/10 11:06:13;;;;;;;32.78;21.80;;;;;;;19.05;53.96;97660.88;5025934;28;20053;-60
2022/11/10 11:09:05;;;;;;;37.58;21.60;;;;;;;19.02;53.60;97650.44;5025399;28;20077;-62
2022/11/10 11:11:38;;;;;;;34.10;21.38;;;;;;;18.06;56.28;97654.06;5025341;28;20080;-66
2022/11/10 11:14:26;;;;;;;32.00;20.77;;;;;;;17.11;56.96;97558.09;5026370;28;20053;-56
2022/11/10 11:17:01;;;;;;;28.48;20.77;;;;;;;17.98;56.75;97653.28;5026131;28;20057;-60
2022/11/10 11:19:34;;;;;;;30.55;21.27;;;;;;;18.28;55.77;97655.59;5025298;28;20707;-62
2022/11/10 11:22:31;;;;;;;36.63;19.50;;;;;;;18.29;55.68;97651.56;5028497;28;20244;-60
2022/11/10 11:25:06;;;;;;;31.90;21.50;;;;;;;18.46;55.41;97647.97;5012140;28;20140;-62
2022/11/10 11:27:51;;;;;;;33.10;21.85;;;;;;;18.78;54.80;97662.63;5026443;28;20088;-61
2022/11/10 11:30:22;;;;;;;29.55;21.45;;;;;;;18.44;54.40;97571.81;5025750;28;20076;-62
2022/11/10 11:32:55;;;;;;;33.30;20.63;;;;;;;18.85;53.73;97640.13;5026037;28;20084;-61
2022/11/10 11:35:46;;;;;;;31.83;21.60;;;;;;;18.44;55.29;97638.34;5024474;28;20057;-62
2022/11/10 11:38:14;;;;;;;35.55;21.48;;;;;;;17.92;55.08;97570.00;5025916;28;20500;-61
2022/11/10 11:41:02;;;;;;;30.65;21.58;;;;;;;18.89;54.57;97635.28;5026008;28;20570;-63
2022/11/10 11:43:47;;;;;;;32.28;21.92;;;;;;;19.02;53.95;97639.22;5023988;28;20142;-64
2022/11/10 11:46:48;;;;;;;28.95;19.73;;;;;;;17.53;54.91;97516.09;5023679;28;20677;-60